Time;durP1;ratioP1;P1;durP2;ratioP2;P2;SDS_P1;SDS_P2;PMS_P1;PMS_P2;Temp;Humidity;BMP_temperature;BMP_pressure;BME280_temperature;BME280_humidity;BME280_pressure;Samples;Min_cycle;Max_cycle;Signal;HPM_P1;HPM_P2
2022/10/28 00:00:03;;;;;;;0.10;0.10;;;;;;;;;;4951235;28;20564;-87
2022/10/28 00:02:29;;;;;;;0.10;0.10;;;;;;;;;;4967469;28;20429;-82
2022/10/28 00:04:55;;;;;;;0.20;0.20;;;;;;;;;;4966830;28;20866;-82
2022/10/28 00:07:21;;;;;;;0.20;0.20;;;;;;;;;;4967290;28;20917;-82
2022/10/28 00:09:47;;;;;;;0.10;0.10;;;;;;;;;;4951973;28;20901;-82
2022/10/28 00:12:13;;;;;;;0.10;0.10;;;;;;;;;;4950921;29;20421;-83
2022/10/28 00:14:39;;;;;;;0.10;0.10;;;;;;;;;;4967371;28;20881;-82
2022/10/28 00:17:05;;;;;;;0.10;0.10;;;;;;;;;;4967339;28;20449;-82
2022/10/28 00:19:31;;;;;;;0.10;0.10;;;;;;;;;;4951242;29;20421;-82
2022/10/28 00:21:57;;;;;;;0.10;0.10;;;;;;;;;;4967241;28;20444;-85
2022/10/28 00:24:23;;;;;;;1.10;1.00;;;;;;;;;;4951230;29;20441;-82
2022/10/28 00:26:49;;;;;;;0.10;0.10;;;;;;;;;;4950056;29;20928;-83
2022/10/28 00:29:16;;;;;;;0.10;0.10;;;;;;;;;;4951488;29;20463;-83
2022/10/28 00:31:42;;;;;;;0.30;0.30;;;;;;;;;;4966957;28;20410;-83
2022/10/28 00:34:13;;;;;;;0.10;0.10;;;;;;;;;;4950737;29;20417;-84
2022/10/28 00:36:40;;;;;;;0.10;0.10;;;;;;;;;;4966539;28;20690;-82
2022/10/28 00:39:19;;;;;;;0.10;0.10;;;;;;;;;;4950726;28;20493;-82
2022/10/28 00:41:47;;;;;;;0.10;0.10;;;;;;;;;;4966681;28;20417;-82
2022/10/28 00:44:31;;;;;;;0.20;0.20;;;;;;;;;;4966113;28;20422;-82
2022/10/28 00:46:57;;;;;;;0.30;0.30;;;;;;;;;;4949629;29;20999;-84
2022/10/28 00:49:27;;;;;;;0.40;0.40;;;;;;;;;;4950696;29;20419;-82
2022/10/28 00:52:01;;;;;;;0.10;0.10;;;;;;;;;;4966465;28;20509;-82
2022/10/28 00:54:28;;;;;;;0.60;0.60;;;;;;;;;;4951153;29;20481;-83
2022/10/28 00:56:56;;;;;;;0.10;0.10;;;;;;;;;;4965994;28;20909;-82
2022/10/28 00:59:24;;;;;;;0.10;0.10;;;;;;;;;;4966581;28;20871;-82
2022/10/28 01:01:50;;;;;;;0.10;0.10;;;;;;;;;;4950526;28;20491;-86
2022/10/28 01:04:16;;;;;;;0.10;0.10;;;;;;;;;;4950815;29;20406;-82
2022/10/28 01:06:43;;;;;;;0.10;0.10;;;;;;;;;;4966545;28;20528;-82
2022/10/28 01:09:09;;;;;;;0.10;0.10;;;;;;;;;;4966855;28;20418;-82
2022/10/28 01:11:47;;;;;;;0.70;0.70;;;;;;;;;;4946821;29;20418;-85
2022/10/28 01:14:20;;;;;;;0.10;0.10;;;;;;;;;;4949703;29;20422;-82
2022/10/28 01:16:53;;;;;;;0.20;0.20;;;;;;;;;;4950286;29;20509;-83
2022/10/28 01:19:38;;;;;;;0.10;0.10;;;;;;;;;;4966473;28;20465;-84
2022/10/28 01:22:19;;;;;;;0.40;0.40;;;;;;;;;;4949462;29;21087;-82
2022/10/28 01:24:54;;;;;;;0.10;0.10;;;;;;;;;;4950055;28;20430;-82
2022/10/28 01:27:39;;;;;;;0.10;0.10;;;;;;;;;;4950274;29;20444;-86
2022/10/28 01:30:10;;;;;;;0.10;0.10;;;;;;;;;;4949754;29;20426;-82
2022/10/28 01:33:12;;;;;;;0.50;0.40;;;;;;;;;;4949904;29;20429;-84
2022/10/28 01:35:51;;;;;;;0.10;0.10;;;;;;;;;;4968101;28;20419;-83
2022/10/28 01:38:25;;;;;;;0.20;0.20;;;;;;;;;;4949988;28;20422;-82
2022/10/28 01:40:54;;;;;;;0.10;0.10;;;;;;;;;;4966451;28;20418;-84
2022/10/28 01:43:33;;;;;;;0.20;0.20;;;;;;;;;;4965681;28;20529;-83
2022/10/28 01:46:07;;;;;;;0.10;0.10;;;;;;;;;;4965972;28;20453;-85
2022/10/28 01:48:41;;;;;;;0.10;0.10;;;;;;;;;;4966362;28;20556;-82
2022/10/28 01:51:14;;;;;;;0.30;0.30;;;;;;;;;;4951252;28;20821;-82
2022/10/28 01:53:42;;;;;;;0.10;0.10;;;;;;;;;;4967402;28;20425;-82
2022/10/28 01:56:10;;;;;;;0.10;0.10;;;;;;;;;;4970378;28;20417;-86
2022/10/28 01:58:38;;;;;;;0.10;0.10;;;;;;;;;;4970305;28;20429;-82
2022/10/28 02:01:05;;;;;;;0.10;0.10;;;;;;;;;;4953141;29;20410;-82
2022/10/28 02:03:31;;;;;;;0.10;0.10;;;;;;;;;;4953400;28;20924;-83
2022/10/28 02:05:58;;;;;;;0.20;0.20;;;;;;;;;;4969779;28;20410;-83
2022/10/28 02:08:33;;;;;;;0.30;0.30;;;;;;;;;;4969451;28;20422;-83
2022/10/28 02:11:13;;;;;;;0.10;0.10;;;;;;;;;;4953702;29;20417;-83
2022/10/28 02:13:57;;;;;;;0.10;0.10;;;;;;;;;;4953089;28;20456;-82
2022/10/28 02:16:32;;;;;;;0.10;0.10;;;;;;;;;;4970788;28;20465;-82
2022/10/28 02:19:07;;;;;;;0.10;0.10;;;;;;;;;;4954154;29;20513;-82
2022/10/28 02:21:50;;;;;;;0.10;0.10;;;;;;;;;;4954596;29;20428;-82
2022/10/28 02:24:16;;;;;;;0.10;0.10;;;;;;;;;;4970838;28;20512;-82
2022/10/28 02:26:46;;;;;;;0.10;0.10;;;;;;;;;;4954701;29;20528;-82
2022/10/28 02:29:20;;;;;;;0.30;0.30;;;;;;;;;;4970143;28;20488;-82
2022/10/28 02:31:51;;;;;;;0.60;0.50;;;;;;;;;;4970629;28;20422;-82
2022/10/28 02:34:19;;;;;;;0.17;0.17;;;;;;;;;;4953675;29;20422;-83
2022/10/28 02:36:47;;;;;;;0.10;0.10;;;;;;;;;;4970057;28;20789;-82
2022/10/28 02:39:14;;;;;;;0.10;0.10;;;;;;;;;;4968579;28;20457;-85
2022/10/28 02:41:46;;;;;;;0.10;0.10;;;;;;;;;;4969241;28;20465;-83
2022/10/28 02:44:15;;;;;;;0.10;0.10;;;;;;;;;;4968353;28;20452;-83
2022/10/28 02:46:43;;;;;;;0.10;0.10;;;;;;;;;;4968994;28;20541;-83
2022/10/28 02:49:11;;;;;;;0.10;0.10;;;;;;;;;;4968059;28;20422;-83
2022/10/28 02:51:51;;;;;;;0.10;0.10;;;;;;;;;;4953661;28;20846;-83
2022/10/28 02:54:21;;;;;;;0.10;0.10;;;;;;;;;;4968236;28;20414;-83
2022/10/28 02:57:08;;;;;;;0.10;0.10;;;;;;;;;;4969551;28;20464;-83
2022/10/28 02:59:34;;;;;;;0.10;0.10;;;;;;;;;;4968074;28;20759;-84
2022/10/28 03:02:00;;;;;;;0.10;0.10;;;;;;;;;;4968135;28;20476;-85
2022/10/28 03:04:26;;;;;;;0.10;0.10;;;;;;;;;;4952326;28;20418;-82
2022/10/28 03:06:52;;;;;;;0.00;0.00;;;;;;;;;;4967389;28;20533;-86
2022/10/28 03:09:18;;;;;;;0.30;0.30;;;;;;;;;;4967658;28;20476;-83
2022/10/28 03:11:44;;;;;;;0.10;0.10;;;;;;;;;;4969044;28;20418;-87
2022/10/28 03:14:10;;;;;;;0.10;0.10;;;;;;;;;;4951150;29;20505;-83
2022/10/28 03:16:37;;;;;;;0.13;0.13;;;;;;;;;;4953198;29;20425;-83
2022/10/28 03:19:03;;;;;;;0.10;0.10;;;;;;;;;;4937628;29;20931;-83
2022/10/28 03:21:29;;;;;;;0.10;0.10;;;;;;;;;;4953627;29;20553;-84
2022/10/28 03:23:55;;;;;;;0.10;0.10;;;;;;;;;;4953002;29;20452;-85
2022/10/28 03:26:21;;;;;;;0.10;0.10;;;;;;;;;;4968644;28;21040;-83
2022/10/28 03:28:47;;;;;;;0.10;0.10;;;;;;;;;;4968201;28;20897;-87
2022/10/28 03:31:14;;;;;;;0.10;0.10;;;;;;;;;;4950988;29;20437;-83
2022/10/28 03:33:40;;;;;;;0.10;0.10;;;;;;;;;;4951738;28;20449;-83
2022/10/28 03:36:06;;;;;;;0.10;0.10;;;;;;;;;;4967539;28;20480;-83
2022/10/28 03:38:32;;;;;;;0.10;0.10;;;;;;;;;;4952184;29;20420;-86
2022/10/28 03:40:58;;;;;;;0.10;0.10;;;;;;;;;;4967351;28;20414;-83
2022/10/28 03:43:24;;;;;;;0.30;0.30;;;;;;;;;;4951545;28;20457;-84
2022/10/28 03:45:50;;;;;;;0.40;0.40;;;;;;;;;;4951300;29;20481;-83
2022/10/28 03:48:16;;;;;;;0.10;0.10;;;;;;;;;;4951939;29;20845;-83
2022/10/28 03:50:42;;;;;;;0.10;0.10;;;;;;;;;;4951531;29;20422;-85
2022/10/28 03:53:09;;;;;;;0.10;0.10;;;;;;;;;;4952342;28;20414;-83
2022/10/28 03:55:35;;;;;;;0.10;0.10;;;;;;;;;;4950818;29;20892;-81
2022/10/28 03:58:01;;;;;;;0.10;0.10;;;;;;;;;;4951396;29;20414;-82
2022/10/28 04:00:29;;;;;;;0.03;0.03;;;;;;;;;;4951208;28;20422;-83
2022/10/28 04:02:55;;;;;;;0.10;0.10;;;;;;;;;;4951597;29;20421;-86
2022/10/28 04:05:21;;;;;;;0.10;0.10;;;;;;;;;;4948873;29;20423;-85
2022/10/28 04:07:47;;;;;;;0.10;0.10;;;;;;;;;;4966094;28;20531;-82
2022/10/28 04:10:13;;;;;;;0.57;0.57;;;;;;;;;;4950050;29;20413;-83
2022/10/28 04:12:39;;;;;;;0.10;0.10;;;;;;;;;;4966464;28;20936;-87
2022/10/28 04:15:05;;;;;;;0.40;0.40;;;;;;;;;;4967172;28;20765;-88
2022/10/28 04:17:33;;;;;;;0.10;0.10;;;;;;;;;;4935126;29;21019;-80
2022/10/28 04:19:59;;;;;;;0.10;0.10;;;;;;;;;;4950659;29;20761;-88
2022/10/28 04:22:25;;;;;;;0.03;0.03;;;;;;;;;;4951101;28;20987;-80
2022/10/28 04:24:53;;;;;;;0.10;0.10;;;;;;;;;;4967212;28;20913;-79
2022/10/28 04:27:19;;;;;;;0.10;0.10;;;;;;;;;;4952281;28;20669;-78
2022/10/28 04:29:45;;;;;;;0.10;0.10;;;;;;;;;;4950852;29;20493;-80
2022/10/28 04:32:11;;;;;;;0.10;0.10;;;;;;;;;;4966898;28;20410;-80
2022/10/28 04:34:37;;;;;;;3.70;0.80;;;;;;;;;;4967040;28;20832;-82
2022/10/28 04:37:04;;;;;;;0.10;0.10;;;;;;;;;;4951973;29;20453;-85
2022/10/28 04:39:30;;;;;;;0.10;0.10;;;;;;;;;;4968783;28;20436;-85
2022/10/28 04:41:56;;;;;;;1.20;0.50;;;;;;;;;;4967283;28;20814;-87
2022/10/28 04:44:22;;;;;;;0.10;0.10;;;;;;;;;;4967049;28;20441;-85
2022/10/28 04:46:48;;;;;;;0.10;0.10;;;;;;;;;;4950747;28;20480;-88
2022/10/28 04:49:14;;;;;;;0.30;0.20;;;;;;;;;;4950828;29;20418;-81
2022/10/28 04:51:40;;;;;;;0.80;0.60;;;;;;;;;;4950931;29;20410;-81
2022/10/28 04:54:06;;;;;;;0.20;0.20;;;;;;;;;;4951603;28;20421;-83
2022/10/28 04:56:32;;;;;;;0.10;0.10;;;;;;;;;;4950716;29;20471;-83
2022/10/28 04:58:58;;;;;;;0.10;0.10;;;;;;;;;;4951403;28;20416;-86
2022/10/28 05:01:24;;;;;;;0.10;0.10;;;;;;;;;;4951746;29;20406;-86
2022/10/28 05:03:50;;;;;;;0.20;0.20;;;;;;;;;;4967362;28;20430;-84
2022/10/28 05:06:16;;;;;;;0.10;0.10;;;;;;;;;;4951855;28;20445;-84
2022/10/28 05:08:42;;;;;;;0.10;0.10;;;;;;;;;;4952100;28;20420;-85
2022/10/28 05:11:08;;;;;;;0.30;0.30;;;;;;;;;;4951603;29;20501;-85
2022/10/28 05:13:34;;;;;;;0.10;0.10;;;;;;;;;;4967982;28;20481;-86
2022/10/28 05:16:00;;;;;;;0.10;0.10;;;;;;;;;;4952677;29;20430;-85
2022/10/28 05:18:26;;;;;;;1.20;0.50;;;;;;;;;;4952155;28;20410;-85
2022/10/28 05:20:54;;;;;;;0.15;0.15;;;;;;;;;;4952009;29;20758;-85
2022/10/28 05:23:23;;;;;;;0.10;0.10;;;;;;;;;;4952110;29;20427;-85
2022/10/28 05:25:50;;;;;;;0.10;0.10;;;;;;;;;;4968591;28;20421;-85
2022/10/28 05:28:16;;;;;;;0.10;0.10;;;;;;;;;;4968407;28;20422;-85
2022/10/28 05:30:42;;;;;;;0.10;0.10;;;;;;;;;;4970931;28;20421;-85
2022/10/28 05:33:09;;;;;;;0.22;0.22;;;;;;;;;;4956052;28;20563;-85
2022/10/28 05:35:36;;;;;;;0.10;0.10;;;;;;;;;;4955978;29;20433;-85
2022/10/28 05:38:02;;;;;;;0.10;0.10;;;;;;;;;;4956264;29;20497;-85
2022/10/28 05:40:28;;;;;;;0.20;0.20;;;;;;;;;;4971468;28;20426;-85
2022/10/28 05:42:54;;;;;;;0.70;0.37;;;;;;;;;;4955471;29;20417;-85
2022/10/28 05:45:20;;;;;;;0.10;0.10;;;;;;;;;;4955927;29;20413;-85
2022/10/28 05:47:47;;;;;;;0.10;0.10;;;;;;;;;;4955280;29;20597;-85
2022/10/28 05:50:15;;;;;;;0.10;0.10;;;;;;;;;;4955337;28;20425;-85
2022/10/28 05:52:45;;;;;;;0.10;0.10;;;;;;;;;;4971946;28;20497;-85
2022/10/28 05:55:11;;;;;;;0.40;0.20;;;;;;;;;;4971681;28;20492;-85
2022/10/28 05:57:37;;;;;;;0.10;0.10;;;;;;;;;;4955504;29;20759;-85
2022/10/28 06:00:03;;;;;;;0.20;0.20;;;;;;;;;;4955353;29;20901;-85
2022/10/28 06:02:29;;;;;;;0.10;0.10;;;;;;;;;;4955527;29;20761;-85
2022/10/28 06:04:55;;;;;;;1.20;0.40;;;;;;;;;;4955390;28;20897;-85
2022/10/28 06:07:23;;;;;;;0.10;0.10;;;;;;;;;;4971362;28;20520;-85
2022/10/28 06:09:49;;;;;;;0.10;0.10;;;;;;;;;;4955668;29;20461;-85
2022/10/28 06:12:15;;;;;;;0.28;0.28;;;;;;;;;;4970928;28;20425;-85
2022/10/28 06:14:42;;;;;;;1.20;0.80;;;;;;;;;;4955528;29;20417;-85
2022/10/28 06:17:08;;;;;;;0.10;0.10;;;;;;;;;;4955275;29;20501;-85
2022/10/28 06:19:34;;;;;;;0.32;0.32;;;;;;;;;;4971351;28;20414;-85
2022/10/28 06:22:00;;;;;;;0.50;0.20;;;;;;;;;;4955157;29;20563;-85
2022/10/28 06:24:26;;;;;;;0.20;0.20;;;;;;;;;;4955128;29;20449;-85
2022/10/28 06:26:52;;;;;;;0.10;0.10;;;;;;;;;;4971137;28;20478;-86
2022/10/28 06:29:19;;;;;;;0.43;0.20;;;;;;;;;;4955149;29;20464;-85
2022/10/28 06:31:45;;;;;;;0.10;0.10;;;;;;;;;;4954475;29;20429;-85
2022/10/28 06:34:12;;;;;;;0.50;0.30;;;;;;;;;;4954661;29;20418;-85
2022/10/28 06:36:38;;;;;;;0.10;0.10;;;;;;;;;;4956165;29;20414;-85
2022/10/28 06:39:05;;;;;;;0.20;0.20;;;;;;;;;;4972067;28;20908;-85
2022/10/28 06:41:31;;;;;;;0.10;0.10;;;;;;;;;;4955227;28;20512;-85
2022/10/28 06:43:57;;;;;;;0.90;0.30;;;;;;;;;;4956360;29;20433;-85
2022/10/28 06:46:23;;;;;;;0.10;0.10;;;;;;;;;;4955937;29;20448;-85
2022/10/28 06:48:49;;;;;;;0.10;0.10;;;;;;;;;;4957012;29;20469;-85
2022/10/28 06:51:18;;;;;;;0.10;0.10;;;;;;;;;;4955546;29;20422;-86
2022/10/28 06:53:47;;;;;;;0.10;0.10;;;;;;;;;;4954588;28;20424;-85
2022/10/28 06:56:13;;;;;;;0.08;0.08;;;;;;;;;;4970054;28;20493;-85
2022/10/28 06:58:40;;;;;;;0.10;0.10;;;;;;;;;;4970460;28;20414;-85
2022/10/28 07:01:06;;;;;;;0.10;0.10;;;;;;;;;;4970176;28;20479;-85
2022/10/28 07:03:32;;;;;;;0.10;0.10;;;;;;;;;;4954181;29;20929;-85
2022/10/28 07:05:58;;;;;;;0.20;0.20;;;;;;;;;;4970534;28;20413;-85
2022/10/28 07:08:25;;;;;;;0.10;0.10;;;;;;;;;;4970356;28;20496;-86
2022/10/28 07:10:55;;;;;;;0.20;0.20;;;;;;;;;;4970939;28;20484;-86
2022/10/28 07:13:22;;;;;;;0.10;0.10;;;;;;;;;;4979394;28;20421;-84
2022/10/28 07:15:54;;;;;;;0.10;0.10;;;;;;;;;;4969792;29;20902;-83
2022/10/28 07:18:21;;;;;;;0.10;0.10;;;;;;;;;;4988316;28;20553;-84
2022/10/28 07:20:47;;;;;;;0.00;0.00;;;;;;;;;;4984915;28;20449;-84
2022/10/28 07:23:13;;;;;;;0.10;0.10;;;;;;;;;;4985277;28;20428;-85
2022/10/28 07:25:39;;;;;;;0.30;0.20;;;;;;;;;;4969295;28;20424;-85
2022/10/28 07:28:05;;;;;;;0.10;0.10;;;;;;;;;;4963663;28;20464;-86
2022/10/28 07:30:32;;;;;;;1.60;0.80;;;;;;;;;;4980323;28;20445;-86
2022/10/28 07:32:59;;;;;;;0.30;0.30;;;;;;;;;;4985469;28;20484;-85
2022/10/28 07:35:29;;;;;;;0.20;0.20;;;;;;;;;;4971129;28;20422;-84
2022/10/28 07:37:55;;;;;;;0.10;0.10;;;;;;;;;;4986127;28;20424;-85
2022/10/28 07:40:21;;;;;;;0.40;0.40;;;;;;;;;;4971926;29;20414;-84
2022/10/28 07:42:47;;;;;;;0.10;0.10;;;;;;;;;;4984271;28;20425;-85
2022/10/28 07:45:13;;;;;;;0.50;0.50;;;;;;;;;;4970013;29;20497;-85
2022/10/28 07:47:40;;;;;;;0.10;0.10;;;;;;;;;;4955188;28;20448;-86
2022/10/28 07:50:06;;;;;;;0.40;0.40;;;;;;;;;;4953481;29;20897;-85
2022/10/28 07:52:33;;;;;;;0.10;0.10;;;;;;;;;;4952109;28;20429;-82
2022/10/28 07:54:59;;;;;;;0.10;0.10;;;;;;;;;;4968880;28;20413;-84
2022/10/28 07:57:25;;;;;;;0.10;0.10;;;;;;;;;;4953177;28;20512;-84
2022/10/28 07:59:51;;;;;;;0.13;0.13;;;;;;;;;;4953857;28;20931;-84
2022/10/28 08:02:18;;;;;;;0.10;0.10;;;;;;;;;;4953000;29;20553;-85
2022/10/28 08:04:44;;;;;;;0.13;0.13;;;;;;;;;;4968889;28;20798;-84
2022/10/28 08:07:11;;;;;;;1.50;0.53;;;;;;;;;;4952098;29;20450;-85
2022/10/28 08:09:37;;;;;;;0.10;0.10;;;;;;;;;;4951790;28;20763;-84
2022/10/28 08:12:04;;;;;;;0.10;0.10;;;;;;;;;;4952273;28;20421;-85
2022/10/28 08:14:30;;;;;;;0.10;0.10;;;;;;;;;;4952950;29;20437;-85
2022/10/28 08:16:56;;;;;;;0.10;0.10;;;;;;;;;;4952800;29;20420;-86
2022/10/28 08:19:22;;;;;;;0.10;0.10;;;;;;;;;;4969177;28;20434;-86
2022/10/28 08:21:48;;;;;;;0.40;0.40;;;;;;;;;;4953369;28;20414;-87
2022/10/28 08:24:14;;;;;;;0.17;0.17;;;;;;;;;;4953455;28;20521;-87
2022/10/28 08:26:40;;;;;;;0.20;0.20;;;;;;;;;;4952921;29;20507;-88
2022/10/28 08:29:07;;;;;;;0.40;0.40;;;;;;;;;;4953271;29;20437;-87
2022/10/28 08:31:33;;;;;;;0.40;0.40;;;;;;;;;;4952760;29;20568;-87
2022/10/28 08:33:59;;;;;;;0.10;0.10;;;;;;;;;;4953519;29;20421;-86
2022/10/28 08:36:25;;;;;;;0.00;0.00;;;;;;;;;;4952070;29;20417;-85
2022/10/28 08:38:51;;;;;;;0.30;0.30;;;;;;;;;;4952423;28;20445;-86
2022/10/28 08:41:29;;;;;;;0.10;0.10;;;;;;;;;;4952939;29;20440;-87
2022/10/28 08:44:14;;;;;;;0.10;0.10;;;;;;;;;;4968837;28;20481;-86
2022/10/28 08:46:56;;;;;;;0.10;0.10;;;;;;;;;;4952315;29;20438;-87
2022/10/28 08:49:23;;;;;;;0.10;0.10;;;;;;;;;;4968968;28;20964;-86
2022/10/28 08:52:08;;;;;;;0.60;0.60;;;;;;;;;;4969094;28;20830;-86
2022/10/28 08:54:50;;;;;;;0.10;0.10;;;;;;;;;;4951786;28;20565;-87
2022/10/28 08:57:20;;;;;;;0.10;0.10;;;;;;;;;;4968705;28;20422;-87
2022/10/28 08:59:47;;;;;;;0.40;0.40;;;;;;;;;;4951950;29;20443;-86
2022/10/28 09:02:20;;;;;;;0.13;0.13;;;;;;;;;;4951797;29;20473;-85
2022/10/28 09:04:47;;;;;;;0.30;0.30;;;;;;;;;;4953498;28;20527;-85
2022/10/28 09:07:17;;;;;;;0.30;0.30;;;;;;;;;;4955725;28;20445;-83
2022/10/28 09:09:44;;;;;;;0.45;0.45;;;;;;;;;;4972100;28;20428;-84
2022/10/28 09:12:15;;;;;;;0.13;0.13;;;;;;;;;;4971886;28;20825;-84
2022/10/28 09:14:53;;;;;;;0.10;0.10;;;;;;;;;;4956126;28;20418;-84
2022/10/28 09:17:20;;;;;;;0.10;0.10;;;;;;;;;;4955396;29;20773;-86
2022/10/28 09:19:50;;;;;;;0.10;0.10;;;;;;;;;;4971219;28;20418;-87
2022/10/28 09:22:16;;;;;;;0.10;0.10;;;;;;;;;;4955944;29;20424;-87
2022/10/28 09:24:49;;;;;;;0.10;0.10;;;;;;;;;;4955505;29;20793;-87
2022/10/28 09:27:34;;;;;;;0.38;0.38;;;;;;;;;;4972007;28;20444;-87
2022/10/28 09:30:06;;;;;;;0.40;0.40;;;;;;;;;;4955920;29;20901;-87
2022/10/28 09:32:51;;;;;;;4.40;1.10;;;;;;;;;;4955208;29;20429;-87
2022/10/28 09:35:18;;;;;;;0.10;0.10;;;;;;;;;;4955466;29;20426;-87
2022/10/28 09:37:50;;;;;;;0.10;0.10;;;;;;;;;;4971745;28;20441;-87
2022/10/28 09:40:16;;;;;;;0.10;0.10;;;;;;;;;;4971812;28;20426;-87
2022/10/28 09:42:47;;;;;;;0.30;0.30;;;;;;;;;;4955582;29;20813;-86
2022/10/28 09:45:22;;;;;;;0.10;0.10;;;;;;;;;;4955447;29;20448;-87
2022/10/28 09:47:55;;;;;;;0.40;0.30;;;;;;;;;;4970958;28;20441;-87
2022/10/28 09:50:23;;;;;;;0.10;0.10;;;;;;;;;;4971839;28;20409;-87
2022/10/28 09:52:52;;;;;;;0.10;0.10;;;;;;;;;;4971535;28;20496;-87
2022/10/28 09:55:22;;;;;;;0.80;0.80;;;;;;;;;;4955154;29;20481;-86
2022/10/28 09:57:48;;;;;;;0.20;0.20;;;;;;;;;;4971193;28;20909;-87
2022/10/28 10:00:14;;;;;;;2.90;0.50;;;;;;;;;;4955628;28;20432;-86
2022/10/28 10:02:41;;;;;;;0.10;0.10;;;;;;;;;;4955010;28;20420;-87
2022/10/28 10:05:12;;;;;;;0.10;0.10;;;;;;;;;;4971617;28;20414;-87
2022/10/28 10:07:40;;;;;;;0.10;0.10;;;;;;;;;;4970477;28;20437;-86
2022/10/28 10:10:13;;;;;;;0.03;0.03;;;;;;;;;;4971382;28;20414;-87
2022/10/28 10:12:39;;;;;;;0.13;0.13;;;;;;;;;;4954728;29;20987;-86
2022/10/28 10:15:06;;;;;;;0.10;0.10;;;;;;;;;;4954931;28;20510;-86
2022/10/28 10:17:43;;;;;;;0.10;0.10;;;;;;;;;;4954591;28;20417;-86
2022/10/28 10:20:09;;;;;;;0.10;0.10;;;;;;;;;;4970975;28;20457;-85
2022/10/28 10:22:36;;;;;;;0.65;0.30;;;;;;;;;;4954633;29;20461;-86
2022/10/28 10:25:22;;;;;;;0.30;0.30;;;;;;;;;;4955201;29;20505;-86
2022/10/28 10:28:05;;;;;;;0.10;0.10;;;;;;;;;;4970143;28;20442;-87
2022/10/28 10:30:33;;;;;;;1.40;0.70;;;;;;;;;;4970768;28;20516;-87
2022/10/28 10:33:00;;;;;;;0.75;0.52;;;;;;;;;;4971067;28;20477;-87
2022/10/28 10:35:33;;;;;;;1.00;0.70;;;;;;;;;;4954789;29;20453;-87
2022/10/28 10:38:01;;;;;;;0.10;0.10;;;;;;;;;;4970687;28;20426;-87
2022/10/28 10:40:32;;;;;;;0.17;0.17;;;;;;;;;;4954684;29;20421;-87
2022/10/28 10:43:14;;;;;;;0.10;0.10;;;;;;;;;;4954689;28;20913;-87
2022/10/28 10:45:40;;;;;;;0.30;0.30;;;;;;;;;;4954258;29;20421;-87
2022/10/28 10:48:17;;;;;;;0.20;0.20;;;;;;;;;;4970623;28;20441;-87
2022/10/28 10:50:45;;;;;;;1.70;0.50;;;;;;;;;;4970136;28;20485;-88
2022/10/28 10:53:18;;;;;;;0.40;0.40;;;;;;;;;;4954593;28;20428;-87
2022/10/28 10:55:48;;;;;;;0.20;0.20;;;;;;;;;;4953951;29;20417;-86
2022/10/28 10:58:19;;;;;;;1.17;1.05;;;;;;;;;;4954352;29;20465;-86
2022/10/28 11:00:46;;;;;;;0.10;0.10;;;;;;;;;;4953611;29;20761;-87
2022/10/28 11:03:17;;;;;;;0.20;0.20;;;;;;;;;;4953770;29;20422;-86
2022/10/28 11:06:03;;;;;;;0.10;0.10;;;;;;;;;;4954181;29;20457;-86
2022/10/28 11:08:34;;;;;;;1.60;0.80;;;;;;;;;;4970166;28;20509;-86
2022/10/28 11:11:05;;;;;;;0.10;0.10;;;;;;;;;;4970405;28;21012;-87
2022/10/28 11:13:31;;;;;;;0.32;0.30;;;;;;;;;;4969884;28;20477;-86
2022/10/28 11:16:05;;;;;;;0.10;0.10;;;;;;;;;;4969954;28;20481;-88
2022/10/28 11:18:57;;;;;;;0.10;0.10;;;;;;;;;;4953714;29;20426;-85
2022/10/28 11:21:36;;;;;;;0.60;0.60;;;;;;;;;;4954189;28;20426;-85
2022/10/28 11:24:11;;;;;;;0.60;0.60;;;;;;;;;;4954080;29;20522;-87
2022/10/28 11:26:41;;;;;;;0.50;0.50;;;;;;;;;;4953046;28;20825;-86
2022/10/28 11:29:14;;;;;;;0.10;0.10;;;;;;;;;;4953002;29;20478;-86
2022/10/28 11:31:52;;;;;;;0.10;0.10;;;;;;;;;;4969212;28;20440;-86
2022/10/28 11:34:36;;;;;;;0.23;0.20;;;;;;;;;;4953375;29;20476;-86
2022/10/28 11:37:15;;;;;;;2.40;1.30;;;;;;;;;;4953516;29;20910;-85
2022/10/28 11:39:41;;;;;;;0.10;0.10;;;;;;;;;;4969160;28;20770;-86
2022/10/28 11:42:14;;;;;;;0.30;0.30;;;;;;;;;;4953640;29;20480;-86
2022/10/28 11:44:40;;;;;;;0.10;0.10;;;;;;;;;;4954104;28;20398;-86
2022/10/28 11:47:16;;;;;;;0.60;0.45;;;;;;;;;;4953303;29;20947;-86
2022/10/28 11:50:01;;;;;;;0.40;0.40;;;;;;;;;;4969268;28;20507;-86
2022/10/28 11:52:32;;;;;;;0.30;0.30;;;;;;;;;;4953454;29;20976;-86
2022/10/28 11:55:02;;;;;;;0.10;0.10;;;;;;;;;;4952626;29;20425;-86
2022/10/28 11:57:37;;;;;;;0.10;0.10;;;;;;;;;;4952970;29;20755;-85
2022/10/28 12:00:03;;;;;;;0.50;0.50;;;;;;;;;;4954155;28;20421;-86
2022/10/28 12:02:29;;;;;;;0.70;0.50;;;;;;;;;;4953398;29;20426;-85
2022/10/28 12:05:18;;;;;;;1.23;0.47;;;;;;;;;;4952629;28;21017;-86
2022/10/28 12:08:00;;;;;;;0.10;0.10;;;;;;;;;;4968829;28;20854;-85
2022/10/28 12:10:38;;;;;;;0.40;0.40;;;;;;;;;;4953225;29;20503;-86
2022/10/28 12:13:13;;;;;;;0.10;0.10;;;;;;;;;;4952952;29;20438;-86
2022/10/28 12:15:51;;;;;;;0.10;0.10;;;;;;;;;;4952440;29;20422;-86
2022/10/28 12:18:25;;;;;;;0.10;0.10;;;;;;;;;;4952750;29;20890;-86
2022/10/28 12:20:51;;;;;;;0.00;0.00;;;;;;;;;;4968685;28;20422;-86
2022/10/28 12:23:20;;;;;;;0.10;0.10;;;;;;;;;;4952900;29;20448;-85
2022/10/28 12:25:49;;;;;;;0.10;0.10;;;;;;;;;;4952092;29;20476;-85
2022/10/28 12:28:21;;;;;;;0.10;0.10;;;;;;;;;;4968761;28;20441;-86
2022/10/28 12:30:47;;;;;;;0.10;0.10;;;;;;;;;;4971139;28;20424;-84
2022/10/28 12:33:18;;;;;;;0.10;0.10;;;;;;;;;;4956911;29;20414;-84
2022/10/28 12:35:50;;;;;;;0.10;0.10;;;;;;;;;;4953129;28;20429;-86
2022/10/28 12:38:26;;;;;;;0.40;0.30;;;;;;;;;;4968248;28;20422;-86
2022/10/28 12:40:59;;;;;;;0.30;0.30;;;;;;;;;;4968429;28;20448;-86
2022/10/28 12:43:45;;;;;;;0.70;0.70;;;;;;;;;;4968910;28;20512;-86
2022/10/28 12:46:32;;;;;;;0.30;0.30;;;;;;;;;;4952193;28;20452;-86
2022/10/28 12:49:18;;;;;;;0.10;0.10;;;;;;;;;;4960947;28;20417;-86
2022/10/28 12:51:44;;;;;;;0.15;0.15;;;;;;;;;;4952071;29;20417;-86
2022/10/28 12:54:16;;;;;;;0.10;0.10;;;;;;;;;;4952866;28;20460;-86
2022/10/28 12:56:49;;;;;;;1.02;0.65;;;;;;;;;;4968299;28;20410;-86
2022/10/28 12:59:17;;;;;;;0.10;0.10;;;;;;;;;;4952352;29;20424;-85
2022/10/28 13:01:44;;;;;;;0.10;0.10;;;;;;;;;;4952005;29;20425;-86
2022/10/28 13:04:11;;;;;;;0.68;0.68;;;;;;;;;;4968751;28;20425;-86
2022/10/28 13:06:53;;;;;;;0.10;0.10;;;;;;;;;;4968203;28;20433;-86
2022/10/28 13:09:19;;;;;;;0.20;0.20;;;;;;;;;;4952306;29;20927;-86
2022/10/28 13:11:45;;;;;;;0.10;0.10;;;;;;;;;;4968168;28;20422;-86
2022/10/28 13:14:29;;;;;;;0.30;0.30;;;;;;;;;;4951814;29;20777;-87
2022/10/28 13:17:14;;;;;;;0.28;0.28;;;;;;;;;;4951926;29;20433;-87
2022/10/28 13:20:15;;;;;;;0.08;0.08;;;;;;;;;;4951917;29;20418;-86
2022/10/28 13:22:48;;;;;;;0.10;0.10;;;;;;;;;;4969972;28;20416;-87
2022/10/28 13:25:20;;;;;;;0.10;0.10;;;;;;;;;;4955848;28;20425;-87
2022/10/28 13:27:47;;;;;;;0.88;0.20;;;;;;;;;;4951652;29;20442;-87
2022/10/28 13:30:16;;;;;;;0.10;0.10;;;;;;;;;;4952350;28;20425;-86
2022/10/28 13:32:43;;;;;;;0.10;0.10;;;;;;;;;;4967955;28;20928;-87
2022/10/28 13:35:23;;;;;;;0.20;0.20;;;;;;;;;;4951883;29;21004;-87
2022/10/28 13:37:51;;;;;;;0.20;0.20;;;;;;;;;;4951740;28;20460;-87
2022/10/28 13:40:35;;;;;;;0.10;0.10;;;;;;;;;;4967997;28;20417;-86
2022/10/28 13:43:01;;;;;;;0.20;0.20;;;;;;;;;;4951516;29;20794;-86
2022/10/28 13:45:47;;;;;;;0.50;0.50;;;;;;;;;;4968153;28;20418;-85
2022/10/28 13:48:28;;;;;;;0.30;0.30;;;;;;;;;;4951941;29;20473;-86
2022/10/28 13:51:09;;;;;;;0.17;0.17;;;;;;;;;;4952860;28;20422;-86
2022/10/28 13:53:39;;;;;;;0.20;0.20;;;;;;;;;;4955531;29;20429;-86
2022/10/28 13:56:11;;;;;;;2.30;0.50;;;;;;;;;;4954950;29;20915;-86
2022/10/28 13:58:37;;;;;;;0.30;0.20;;;;;;;;;;4971572;28;20449;-86
2022/10/28 14:01:36;;;;;;;0.17;0.17;;;;;;;;;;4954125;29;20767;-83
2022/10/28 14:04:03;;;;;;;0.35;0.20;;;;;;;;;;4937804;29;20901;-81
2022/10/28 14:06:33;;;;;;;0.10;0.10;;;;;;;;;;4955251;29;20421;-82
2022/10/28 14:09:00;;;;;;;0.80;0.30;;;;;;;;;;4970490;28;20767;-82
2022/10/28 14:11:28;;;;;;;0.30;0.30;;;;;;;;;;4954615;28;20414;-84
2022/10/28 14:14:01;;;;;;;0.10;0.10;;;;;;;;;;4956090;29;20469;-87
2022/10/28 14:16:36;;;;;;;1.25;0.45;;;;;;;;;;4971477;28;20457;-84
2022/10/28 14:19:05;;;;;;;0.10;0.10;;;;;;;;;;4955961;28;20814;-84
2022/10/28 14:21:44;;;;;;;0.45;0.43;;;;;;;;;;4954654;29;20472;-83
2022/10/28 14:24:29;;;;;;;0.10;0.10;;;;;;;;;;4970434;28;20849;-89
2022/10/28 14:27:07;;;;;;;0.20;0.20;;;;;;;;;;4955590;29;20528;-90
2022/10/28 14:29:52;;;;;;;0.10;0.10;;;;;;;;;;4954475;29;20485;-86
2022/10/28 14:32:30;;;;;;;0.10;0.10;;;;;;;;;;4953022;29;20425;-87
2022/10/28 14:34:59;;;;;;;0.38;0.38;;;;;;;;;;4954953;28;20425;-84
2022/10/28 14:37:34;;;;;;;0.43;0.43;;;;;;;;;;4954618;29;20731;-82
2022/10/28 14:40:21;;;;;;;0.10;0.10;;;;;;;;;;4954702;29;20928;-84
2022/10/28 14:42:50;;;;;;;1.90;0.90;;;;;;;;;;4954712;28;20433;-80
2022/10/28 14:45:29;;;;;;;0.10;0.10;;;;;;;;;;4969484;28;20484;-84
2022/10/28 14:48:21;;;;;;;0.40;0.40;;;;;;;;;;4954631;29;20430;-84
2022/10/28 14:50:49;;;;;;;0.15;0.15;;;;;;;;;;4952921;29;20419;-81
2022/10/28 14:53:21;;;;;;;0.20;0.20;;;;;;;;;;4954741;29;20923;-81
2022/10/28 14:55:50;;;;;;;0.17;0.17;;;;;;;;;;4953076;29;20414;-79
2022/10/28 14:58:27;;;;;;;0.10;0.10;;;;;;;;;;4954978;29;20473;-82
2022/10/28 15:01:18;;;;;;;0.10;0.10;;;;;;;;;;4954066;29;20468;-82